Aviation Digital Data Service (ADDS)

Output produced by METARs form (1655 UTC 16 June 2019)
found at http://www.aviationweather.gov/metar/data/
 
Forecast for: WBGB (BINTULU/KALIMANT, MY)
Text: TAF WBGB 161100Z 1612/1712 VRB03KT 9999 FEW016
Forecast period: 1200 UTC 16 June 2019 to 1200 UTC 17 June 2019
Forecast type: FROM: standard forecast or significant change
Winds: variable direction winds at 3 MPH (3 knots; 1.5 m/s)
Visibility: 6 or more miles 10+ km)
Ceiling: at least 12,000 feet AGL
Clouds: few clouds at 1600 feet AGL
Weather: no significant weather forecast for this period